Tiempo atmosférico en la estación meteorológica de Algarrobo, Málaga (80 m.)



Fecha
DESCASC
Temp. máxima en grados centígrados (hora)
DESCASC
Temp. mínima en grados centígrados (hora)
DESCASC
Temp. media en grados centígrados
DESCASC
Racha de viento máxima en m/sg (hora)
DESCASC
Velocidad máxima media en intervalos de 10 minutos(hora)
DESCASC
Precipitaciones diarias en mm
DESCASC
Precipitaciones de 00:00 a 06:00 en mm
DESCASC
Precipitaciones de 06:00 a 12:00 en mm
DESCASC
Precipitaciones de 12:00 a 18:00 en mm
DESCASC
Precipitaciones de 18:00 a 24:00 en mm
DESCASC
31-03-2020 16.1 (17:30) 12.1 (04:50) 14.1 10.56 (10:20) 4.72 (11:30) 46.6 11.4 13.6 12.2 9.4
30-03-2020 17.6 (13:50) 10.4 (08:30) 14 4.72 (13:40) 3.06 (14:10) 0 0 0 0 0
29-03-2020 18 (11:30) 9.7 (00:00) 13.8 5.56 (15:00) 3.89 (15:10) 0 0 0 0 0
28-03-2020 16.4 (14:50) 12.4 (00:00) 14.4 8.33 (15:20) 5 (15:00) 1.4 0.4 1 0 0
27-03-2020 16.2 (15:20) 11.7 (00:00) 14 9.72 (10:30) 4.72 (13:00) 0 0 0 0 0
26-03-2020 22.6 (17:40) 9 (00:00) 15.8 11.94 (12:30) 7.22 (12:50) 0 0 0 0 0
25-03-2020 15 (16:00) 10.5 (00:00) 12.8 6.94 (10:40) 3.61 (10:40) 28.4 17.6 10.2 0.6 0
24-03-2020 20.3 (15:40) 11.6 (00:00) 15.9 6.39 (14:50) 4.17 (14:50) 2.2 0.8 0 0.4 1
23-03-2020 15.5 (11:20) 9 (00:00) 12.3 7.5 (15:40) 3.89 (16:10) 8.8 0 0 8.4 0.4
22-03-2020 16.3 (16:20) 9.4 (07:10) 12.8 6.94 (13:00) 4.72 (14:40) 13.6 13.6 0 0 0
21-03-2020 17.3 (15:50) 10.6 (00:00) 13.9 10.83 (04:40) 6.67 (04:40) 30 15.4 0.2 1.4 13
20-03-2020 20.2 (14:30) 12.5 (00:00) 16.4 11.11 (22:20) 4.72 (23:00) 0 0 0 0 0
19-03-2020 19.6 (14:10) 12.4 (00:00) 16 6.11 (14:30) 4.17 (14:30) 0 0 0 0 0
18-03-2020 20.2 (14:10) 11.6 (00:00) 15.9 13.33 (16:10) 7.22 (16:10) 0 0 0 0 0
17-03-2020 18.1 (13:30) 9.4 (00:00) 13.8 12.78 (10:40) 6.67 (11:10) 3.4 0 3.4 0 0
16-03-2020 19.5 (13:50) 11.9 (00:00) 15.7 12.78 (13:00) 8.61 (13:00) 0.2 0 0.2 0 0
15-03-2020 17.3 (17:30) 12.5 (00:00) 14.9 4.72 (16:10) 2.78 (16:50) 0.4 0 0 0.4 0
14-03-2020 19.6 (12:50) 12.5 (00:00) 16.1 5.83 (14:40) 3.89 (13:30) 0 0 0 0 0
13-03-2020 21.4 (11:00) 11.6 (07:50) 16.5 8.33 (13:10) 5 (14:10) 0 0 0 0 0
12-03-2020 24.8 (13:10) 12.8 (00:00) 18.8 5.28 (15:00) 3.89 (15:00) 0 0 0 0 0
11-03-2020 24.4 (17:30) 10.7 (00:00) 17.5 5.83 (15:10) 3.61 (14:50) 0 0 0 0 0
10-03-2020 23.3 (12:50) 11.7 (00:00) 17.5 8.89 (13:30) 5.56 (16:20) 0 0 0 0 0
09-03-2020 24.4 (10:30) 12.4 (00:00) 18.4 9.17 (12:40) 5 (10:10) 0 0 0 0 0
08-03-2020 19.7 (11:40) 9.2 (00:00) 14.5 4.17 (13:40) 2.78 (13:20) 0 0 0 0 0
07-03-2020 19.4 (13:20) 9.8 (00:00) 14.6 7.5 (04:00) 4.17 (04:20) 0 0 0 0 0
06-03-2020 21.1 (15:40) 12 (00:00) 16.6 19.72 (17:20) 12.22 (17:10) 0 0 0 0 0
05-03-2020 23.9 (13:30) 10.7 (00:00) 17.3 18.61 (14:00) 11.39 (15:20) 0 0 0 0 0
04-03-2020 27.2 (15:10) 13.2 (00:00) 20.2 13.33 (01:40) 7.5 (00:50) 0 0 0 0 0

Gráficas

Temp. máximas Temp. mínimas Temp. medias Precipitaciones Rachas de viento máximas Velocidades máximas media en intervalos de 10 minutos

Datos horarios

Fecha y hora oficial Temperatura (ºC) Velocidad del viento (km/h) Dirección del viento Racha (km/h) Dirección de racha Precipitación (mm) Presión (hPa) Tendencia (hPa) Humedad (%)
2020-04-02 23:00:00 13.5 11 Noroeste 37 Oeste 0 -- -- 64
2020-04-02 22:00:00 13.8 18 Oeste 32 Oeste 0 -- -- 61
2020-04-02 21:00:00 13.7 17 Noroeste 32 Noroeste 0 -- -- 65
2020-04-02 20:00:00 15 20 Noroeste 36 Noroeste 0 -- -- 61
2020-04-02 19:00:00 13.7 18 Noroeste 37 Noroeste 0 -- -- 66
2020-04-02 18:00:00 14.3 8 Noroeste 21 Oeste 0 -- -- 72
2020-04-02 17:00:00 14.2 6 Sudoeste 12 Sudoeste 0.2 -- -- 66
2020-04-02 16:00:00 11.5 5 Norte 26 Norte 0.4 -- -- 85
2020-04-02 15:00:00 14.3 11 Sur 22 Sudoeste 0 -- -- 70
2020-04-02 14:00:00 14.6 13 Sur 20 Sur 0.2 -- -- 75
2020-04-02 13:00:00 13.7 11 Sur 22 Sur 0 -- -- 78
2020-04-02 12:00:00 14.9 8 Sur 13 Sur 0 -- -- 78
2020-04-02 11:00:00 12.1 5 Noroeste 20 Norte 0 -- -- 81
2020-04-02 10:00:00 9.2 11 Nordeste 36 Noroeste 4.4 -- -- 88
2020-04-02 09:00:00 11.4 7 Sur 15 Sur 2 -- -- 93
2020-04-02 08:00:00 11.3 3 Este 5 Norte 2.6 -- -- 93
2020-04-02 07:00:00 11.4 2 Norte 8 Norte 0 -- -- 87
2020-04-02 06:00:00 10.6 5 Norte 7 Norte 0 -- -- 85
2020-04-02 05:00:00 9.7 4 Norte 10 Norte 0 -- -- 84
2020-04-02 04:00:00 10.7 5 Nordeste 12 Norte 0 -- -- 79
2020-04-02 03:00:00 10.2 8 Norte 13 Norte 0 -- -- 82
2020-04-02 02:00:00 10.7 10 Norte 14 Norte 0 -- -- 81
2020-04-02 01:00:00 11.5 5 Norte 13 Norte 0 -- -- 79
2020-04-02 00:00:00 12.4 9 Noroeste 21 Noroeste 0 -- -- 81
2020-04-01 23:00:00 12.8 8 Norte 16 Norte 0 -- -- 76
2020-04-01 22:00:00 13.8 0 Calma 20 Oeste 0 -- -- 79
2020-04-01 21:00:00 15.3 5 Oeste 23 Sudoeste 0 -- -- 73
2020-04-01 20:00:00 17.3 3 Sudoeste 15 Sudoeste 0 -- -- 65
2020-04-01 19:00:00 16.6 3 Sudoeste 22 Sudoeste 0 -- -- 67
2020-04-01 18:00:00 18.3 9 Sudoeste 20 Sudoeste 0 -- -- 68
2020-04-01 17:00:00 18.3 13 Sudoeste 26 Oeste 0 -- -- 69
2020-04-01 16:00:00 16.8 10 Norte 30 Sudoeste 0 -- -- 70
2020-04-01 15:00:00 16.6 12 Sudoeste 22 Sudoeste 0 -- -- 80
2020-04-01 14:00:00 16.9 13 Sudoeste 24 Oeste 0 -- -- 78
2020-04-01 13:00:00 16.9 12 Sudoeste 20 Sudoeste 0 -- -- 80
2020-04-01 12:00:00 16.4 6 Sudoeste 12 Sudoeste 0 -- -- 80
2020-04-01 11:00:00 15.9 3 Sudoeste 7 Sudoeste 0 -- -- 84
2020-04-01 10:00:00 14.1 0 Calma 4 Norte 0 -- -- 96
2020-04-01 09:00:00 12.8 2 Norte 4 Nordeste 0 -- -- 97
2020-04-01 08:00:00 12.6 2 Este 7 Norte 0.2 -- -- 96
2020-04-01 07:00:00 12.7 4 Norte 6 Norte 0.2 -- -- 96
2020-04-01 06:00:00 12.8 3 Nordeste 6 Norte 1 -- -- 97
2020-04-01 05:00:00 12.7 3 Norte 9 Este 0 -- -- 96
2020-04-01 04:00:00 12.5 4 Nordeste 5 Nordeste 0 -- -- 96
2020-04-01 03:00:00 13.1 2 Nordeste 5 Este 0 -- -- 95
2020-04-01 02:00:00 13.6 4 Este 10 Este 0 -- -- 95
2020-04-01 01:00:00 13.4 3 Este 6 Nordeste 0.2 -- -- 96
2020-04-01 00:00:00 13.7 3 Nordeste 13 Nordeste 2.8 -- -- 95
2020-03-31 23:00:00 13.9 9 Norte 13 Noroeste 6.2 -- -- 95
2020-03-31 22:00:00 13.9 3 Nordeste 10 Nordeste 0 -- -- 93
2020-03-31 21:00:00 14 2 Este 9 Este 0 -- -- 93
2020-03-31 20:00:00 14.2 2 Nordeste 14 Este 0 -- -- 92
2020-03-31 19:00:00 14.2 5 Sudeste 23 Sur 0.4 -- -- 92
2020-03-31 18:00:00 14.8 14 Sudeste 29 Sudeste 2.4 -- -- 89
2020-03-31 17:00:00 15.1 10 Sudeste 23 Sudeste 0.2 -- -- 87
2020-03-31 16:00:00 14.4 4 Este 16 Este 3.2 -- -- 92
2020-03-31 15:00:00 13.1 15 Noroeste 33 Noroeste 5 -- -- 92
2020-03-31 14:00:00 13.5 4 Oeste 12 Sudeste 0.8 -- -- 91
2020-03-31 13:00:00 13.9 6 Sudeste 13 Este 0.6 -- -- 87
2020-03-31 12:00:00 12.4 6 Este 37 Sur 4.2 -- -- 91
2020-03-31 11:00:00 12.5 8 Sudeste 38 Sudeste 5 -- -- 89
2020-03-31 10:00:00 12.9 13 Sudeste 35 Sudeste 1 -- -- 88
2020-03-31 09:00:00 12.8 14 Sudeste 35 Este 0.2 -- -- 88
2020-03-31 08:00:00 12.5 8 Este 27 Sudeste 2.6 -- -- 90
2020-03-31 07:00:00 12.8 6 Este 28 Este 0.6 -- -- 88
2020-03-31 06:00:00 12.4 12 Este 27 Este 1 -- -- 92
2020-03-31 05:00:00 12.1 9 Este 23 Este 4.6 -- -- 93
2020-03-31 04:00:00 12.3 2 Nordeste 9 Norte 3.6 -- -- 93
2020-03-31 03:00:00 13 4 Norte 9 Nordeste 2.2 -- -- 90
2020-03-31 02:00:00 14.1 3 Nordeste 8 Este 0 -- -- 85
2020-03-31 01:00:00 14 5 Sudeste 10 Este 0 -- -- 80
2020-03-31 00:00:00 13.9 2 Sudeste 10 Nordeste 0 -- -- 85
2020-03-30 23:00:00 13.7 3 Este 5 Este 0 -- -- 88
2020-03-30 22:00:00 14.5 2 Sudeste 7 Sudoeste 0 -- -- 82
2020-03-30 21:00:00 15 0 Calma 3 Oeste 0 -- -- 81
2020-03-30 20:00:00 15.8 0 Calma 8 Sudoeste 0 -- -- 75
2020-03-30 19:00:00 16.2 4 Sudoeste 11 Sudoeste 0 -- -- 73
2020-03-30 18:00:00 16.7 4 Sudoeste 8 Sudoeste 0 -- -- 71
2020-03-30 17:00:00 16.9 3 Sur 13 Sudoeste 0 -- -- 71
2020-03-30 16:00:00 17.1 8 Sur 16 Sudoeste 0 -- -- 72
2020-03-30 15:00:00 17.1 8 Sudoeste 15 Sudoeste 0 -- -- 74
2020-03-30 14:00:00 17.6 9 Sur 17 Sur 0 -- -- 74
2020-03-30 13:00:00 16.9 9 Sudoeste 14 Sur 0 -- -- 79
2020-03-30 12:00:00 16.9 7 Sudoeste 14 Sudoeste 0 -- -- 76
2020-03-30 11:00:00 16.4 8 Sudoeste 12 Sudoeste 0 -- -- 74
2020-03-30 10:00:00 14.7 3 Norte 5 Norte 0 -- -- 81
2020-03-30 09:00:00 10.8 3 Nordeste 6 Norte 0 -- -- 92
2020-03-30 08:00:00 10.9 2 Norte 7 Norte 0 -- -- 90
2020-03-30 07:00:00 12.2 0 Calma 8 Norte 0 -- -- 87
2020-03-30 06:00:00 12.5 0 Calma 6 Norte 0 -- -- 88
2020-03-30 05:00:00 12.3 4 Nordeste 8 Norte 0 -- -- 86
2020-03-30 04:00:00 12.4 4 Norte 6 Norte 0 -- -- 87
2020-03-30 03:00:00 12.2 3 Norte 6 Norte 0 -- -- 90
2020-03-30 02:00:00 12.1 3 Norte 10 Nordeste 0 -- -- 88
2020-03-30 01:00:00 12.2 3 Nordeste 6 Nordeste 0 -- -- 90
2020-03-30 00:00:00 12.8 6 Nordeste 8 Nordeste 0 -- -- 88
2020-03-29 23:00:00 12.8 0 Calma 4 Nordeste 0 -- -- 86
2020-03-29 22:00:00 13.9 0 Calma 12 Oeste 0 -- -- 82
2020-03-29 21:00:00 14.5 4 Sudoeste 10 Sudoeste 0 -- -- 78
2020-03-29 20:00:00 15.5 2 Oeste 10 Sudoeste 0 -- -- 73
2020-03-29 19:00:00 16.6 6 Sudoeste 13 Sudoeste 0 -- -- 66
2020-03-29 18:00:00 17.2 8 Sudoeste 17 Sudoeste 0 -- -- 64
2020-03-29 17:00:00 17.5 10 Sudoeste 17 Sudoeste 0 -- -- 67
2020-03-29 16:00:00 17.4 10 Sudoeste 19 Sudoeste 0 -- -- 67
2020-03-29 15:00:00 17.7 12 Sudoeste 20 Sudoeste 0 -- -- 64
2020-03-29 14:00:00 17.6 12 Sudoeste 20 Sur 0 -- -- 65
2020-03-29 13:00:00 17.7 12 Sudoeste 17 Sudoeste 0 -- -- 65
2020-03-29 12:00:00 17.4 10 Sudoeste 14 Sudoeste 0 -- -- 66
2020-03-29 11:00:00 17.3 2 Sur 5 Sudoeste 0 -- -- 58
2020-03-29 10:00:00 13.5 3 Noroeste 13 Norte 0 -- -- 75
2020-03-29 09:00:00 10.2 2 Noroeste 16 Norte 0 -- -- 83
2020-03-29 08:00:00 9.8 5 Norte 10 Norte 0 -- -- 85
2020-03-29 07:00:00 10.5 6 Norte 11 Norte 0 -- -- 85
2020-03-29 06:00:00 10.5 7 Norte 11 Norte 0 -- -- 87
2020-03-29 05:00:00 10.8 5 Norte 8 Norte 0 -- -- 87
2020-03-29 03:00:00 13.1 2 Nordeste 5 Norte 0 -- -- 81
2020-03-29 01:00:00 13.3 2 Nordeste 5 Norte 0 -- -- 79
2020-03-29 00:00:00 13.3 2 Nordeste 5 Este 0 -- -- 79
2020-03-28 23:00:00 13.5 3 Nordeste 7 Este 0 -- -- 80
2020-03-28 22:00:00 13.6 4 Nordeste 7 Este 0 -- -- 78
2020-03-28 21:00:00 13.8 2 Este 8 Este 0 -- -- 76
2020-03-28 20:00:00 13.9 5 Sudeste 12 Sur 0 -- -- 75
2020-03-28 19:00:00 14.2 6 Sudeste 16 Sudeste 0 -- -- 76
2020-03-28 18:00:00 14.6 8 Sudeste 20 Sur 0 -- -- 71
2020-03-28 17:00:00 14.8 10 Sudeste 21 Sudeste 0 -- -- 68
2020-03-28 16:00:00 15.2 11 Sudeste 30 Sudeste 0 -- -- 67
2020-03-28 15:00:00 16.1 18 Sudeste 28 Sudeste 0 -- -- 64
2020-03-28 14:00:00 15.4 15 Sudeste 27 Sur 0 -- -- 68
2020-03-28 13:00:00 14.7 12 Sudeste 28 Sudeste 0 -- -- 69
2020-03-28 12:00:00 14 10 Sudeste 23 Sudeste 0 -- -- 82
2020-03-28 11:00:00 14.8 8 Sudeste 18 Sudeste 0 -- -- 77
2020-03-28 10:00:00 13.4 6 Este 22 Sudeste 0.6 -- -- 84
2020-03-28 09:00:00 13.5 2 Este 13 Este 0 -- -- 80
2020-03-28 08:00:00 12.7 4 Este 13 Sudeste 0 -- -- 84
2020-03-28 07:00:00 12.5 5 Este 19 Sudeste 0.4 -- -- 86
2020-03-28 06:00:00 13 7 Sudeste 18 Sudeste 0 -- -- 79
2020-03-28 05:00:00 13 6 Este 16 Este 0 -- -- 80
2020-03-28 04:00:00 13 6 Este 17 Este 0 -- -- 83
2020-03-28 03:00:00 13.1 5 Este 18 Este 0.4 -- -- 86
2020-03-28 02:00:00 13.3 2 Nordeste 8 Este 0 -- -- 85
2020-03-28 01:00:00 13.2 3 Este 9 Este 0 -- -- 85
2020-03-28 00:00:00 13.3 3 Este 9 Este 0 -- -- 84
2020-03-27 23:00:00 13.3 0 Calma 5 Este 0 -- -- 83
2020-03-27 22:00:00 12.1 2 Nordeste 7 Este 0 -- -- 87
2020-03-27 21:00:00 12.1 4 Este 7 Este 0 -- -- 83
2020-03-27 20:00:00 13.5 4 Este 13 Sudeste 0 -- -- 77
2020-03-27 19:00:00 14.9 7 Sudeste 22 Sur 0 -- -- 71
2020-03-27 18:00:00 15.8 10 Sudeste 25 Sudeste 0 -- -- 68
2020-03-27 17:00:00 15.5 14 Sudeste 27 Sudeste 0 -- -- 68
2020-03-27 16:00:00 15.9 11 Sudeste 27 Sudeste 0 -- -- 65
2020-03-27 15:00:00 15.1 12 Sudeste 28 Sudeste 0 -- -- 68
2020-03-27 14:00:00 15.5 14 Sudeste 31 Sudeste 0 -- -- 67
2020-03-27 13:00:00 15.4 17 Sudeste 34 Sudeste 0 -- -- 64
2020-03-27 12:00:00 15.3 12 Sudeste 35 Sudeste 0 -- -- 66
2020-03-27 11:00:00 15.3 13 Sudeste 35 Sudeste 0 -- -- 67
2020-03-27 10:00:00 14.6 12 Sudeste 33 Sudeste 0 -- -- 68
2020-03-27 09:00:00 14.2 10 Sudeste 28 Este 0 -- -- 71
2020-03-27 08:00:00 13.4 11 Sudeste 26 Sudeste 0 -- -- 72
2020-03-27 07:00:00 13.3 10 Sudeste 26 Sudeste 0 -- -- 77
2020-03-27 06:00:00 13.7 12 Sudeste 29 Sudeste 0 -- -- 76
2020-03-27 05:00:00 13.7 14 Sudeste 31 Sudeste 0 -- -- 78
2020-03-27 04:00:00 13.9 9 Sudeste 32 Sudeste 0 -- -- 80
2020-03-27 03:00:00 14.6 14 Este 32 Este 0 -- -- 81
2020-03-27 02:00:00 15.3 11 Noroeste 20 Noroeste 0 -- -- 63
2020-03-27 01:00:00 13.9 6 Noroeste 13 Norte 0 -- -- 73
2020-03-27 00:00:00 14.8 10 Noroeste 23 Norte 0 -- -- 71
2020-03-26 23:00:00 15.6 16 Norte 22 Norte 0 -- -- 67
2020-03-26 22:00:00 14.8 8 Noroeste 12 Norte 0 -- -- 73
2020-03-26 21:00:00 16.2 7 Norte 11 Noroeste 0 -- -- 65
2020-03-26 20:00:00 18 7 Norte 23 Noroeste 0 -- -- 55
2020-03-26 19:00:00 21.2 15 Noroeste 34 Noroeste 0 -- -- 42
2020-03-26 18:00:00 22.5 24 Noroeste 39 Noroeste 0 -- -- 41
2020-03-26 17:00:00 19.2 15 Sudoeste 36 Sudoeste 0 -- -- 71
2020-03-26 16:00:00 18.6 14 Oeste 31 Sudoeste 0 -- -- 71
2020-03-26 15:00:00 18.5 15 Sudoeste 35 Sudoeste 0 -- -- 73
2020-03-26 14:00:00 19.5 21 Oeste 40 Noroeste 0 -- -- 64
2020-03-26 13:00:00 21 26 Noroeste 43 Noroeste 0 -- -- 54
2020-03-26 12:00:00 19.7 23 Noroeste 41 Noroeste 0 -- -- 57
2020-03-26 11:00:00 18.5 23 Noroeste 38 Noroeste 0 -- -- 60
2020-03-26 10:00:00 15.5 12 Oeste 26 Oeste 0 -- -- 75
2020-03-26 09:00:00 13.3 10 Oeste 19 Oeste 0 -- -- 81
2020-03-26 08:00:00 10.3 0 Calma 11 Noroeste 0 -- -- 91
2020-03-26 07:00:00 10.5 6 Noroeste 15 Noroeste 0 -- -- 93
2020-03-26 06:00:00 9.4 2 Nordeste 6 Nordeste 0 -- -- 95
2020-03-26 05:00:00 9.1 4 Norte 9 Norte 0 -- -- 94
2020-03-26 04:00:00 9.4 3 Norte 9 Norte 0 -- -- 93
2020-03-26 03:00:00 9.5 4 Norte 7 Norte 0 -- -- 93
2020-03-26 02:00:00 10.4 4 Norte 11 Noroeste 0 -- -- 92
2020-03-26 01:00:00 10.7 3 Norte 5 Norte 0 -- -- 88
2020-03-26 00:00:00 12.2 0 Calma 3 Norte 0 -- -- 87
2020-03-25 23:00:00 12.4 0 Calma 5 Norte 0 -- -- 85
2020-03-25 22:00:00 12.5 4 Norte 6 Norte 0 -- -- 84
2020-03-25 21:00:00 12.8 3 Norte 5 Norte 0 -- -- 82
2020-03-25 20:00:00 13.5 0 Calma 5 Sur 0 -- -- 79
2020-03-25 19:00:00 14 4 Sudoeste 11 Sudoeste 0 -- -- 70
2020-03-25 18:00:00 14.4 7 Sudoeste 13 Sudoeste 0 -- -- 68
2020-03-25 17:00:00 14.7 6 Oeste 15 Oeste 0 -- -- 71
2020-03-25 16:00:00 15 8 Noroeste 15 Noroeste 0 -- -- 74
2020-03-25 15:00:00 13.3 5 Oeste 10 Oeste 0 -- -- 85
2020-03-25 14:00:00 13.2 5 Norte 13 Este 0 -- -- 84
2020-03-25 13:00:00 12 4 Nordeste 12 Este 0.6 -- -- 90
2020-03-25 12:00:00 11 4 Nordeste 13 Sudeste 2.4 -- -- 95
2020-03-25 11:00:00 10.5 7 Sudeste 25 Sudeste 1.2 -- -- 95
2020-03-25 10:00:00 12.3 6 Norte 15 Norte 1 -- -- 96
2020-03-25 09:00:00 12 6 Nordeste 12 Nordeste 1.2 -- -- 96
2020-03-25 08:00:00 12 8 Norte 14 Norte 3.6 -- -- 95
2020-03-25 07:00:00 12.1 6 Norte 11 Norte 0.8 -- -- 95
2020-03-25 06:00:00 12.5 2 Norte 19 Sur 11.2 -- -- 94
2020-03-25 05:00:00 13.4 9 Norte 15 Noroeste 6.2 -- -- 93
2020-03-25 04:00:00 13.7 0 Calma 4 Norte 0.2 -- -- 94
2020-03-25 03:00:00 13.3 0 Calma 4 Norte 0 -- -- 93
2020-03-25 02:00:00 13.2 3 Norte 5 Norte 0 -- -- 93
2020-03-25 01:00:00 13.7 0 Calma 3 Nordeste 0 -- -- 93
2020-03-25 00:00:00 13.8 3 Norte 5 Norte 0 -- -- 92
2020-03-24 23:00:00 13.9 3 Norte 10 Noroeste 0 -- -- 90
2020-03-24 22:00:00 14.7 6 Noroeste 15 Noroeste 0 -- -- 87
2020-03-24 21:00:00 14.6 5 Noroeste 9 Noroeste 0 -- -- 90
2020-03-24 20:00:00 14.8 4 Norte 8 Norte 0 -- -- 91
2020-03-24 19:00:00 15.2 3 Nordeste 10 Sur 1 -- -- 90
2020-03-24 18:00:00 15.8 4 Sur 20 Sudoeste 0.2 -- -- 83
2020-03-24 17:00:00 17 12 Sudoeste 21 Sudoeste 0 -- -- 73
2020-03-24 16:00:00 20.1 10 Sudoeste 19 Sudoeste 0 -- -- 55
2020-03-24 15:00:00 19.8 11 Sudoeste 23 Sudoeste 0 -- -- 55
2020-03-24 14:00:00 18.9 12 Sudoeste 21 Oeste 0 -- -- 61
2020-03-24 13:00:00 18.5 9 Sudoeste 17 Sudoeste 0.2 -- -- 66
2020-03-24 12:00:00 19.1 5 Sur 12 Oeste 0 -- -- 60
2020-03-24 11:00:00 17.2 3 Norte 9 Norte 0 -- -- 67
2020-03-24 10:00:00 15.1 7 Norte 13 Norte 0 -- -- 79
2020-03-24 09:00:00 13.2 6 Norte 11 Norte 0 -- -- 84
2020-03-24 08:00:00 12.4 4 Nordeste 9 Norte 0 -- -- 89
2020-03-24 07:00:00 12.4 4 Sudeste 19 Norte 0 -- -- 83
2020-03-24 06:00:00 12.5 9 Norte 15 Norte 0 -- -- 81
2020-03-24 05:00:00 12.1 7 Norte 16 Norte 0 -- -- 84
2020-03-24 04:00:00 12 7 Norte 13 Norte 0 -- -- 86
2020-03-24 03:00:00 11.9 7 Norte 15 Noroeste 0 -- -- 89
2020-03-24 02:00:00 12 4 Norte 18 Norte 0 -- -- 89
2020-03-24 01:00:00 11.9 8 Norte 17 Norte 0.8 -- -- 91
2020-03-24 00:00:00 11.9 2 Norte 13 Norte 0 -- -- 91
2020-03-23 23:00:00 11.9 7 Norte 11 Norte 0 -- -- 90
2020-03-23 22:00:00 11.7 7 Norte 11 Norte 0 -- -- 90
2020-03-23 21:00:00 11.6 6 Norte 13 Noroeste 0.2 -- -- 91
2020-03-23 20:00:00 12.2 7 Norte 12 Norte 0.2 -- -- 93
2020-03-23 19:00:00 12.3 7 Noroeste 12 Noroeste 0 -- -- 92
2020-03-23 18:00:00 12.5 4 Norte 12 Norte 1 -- -- 92
2020-03-23 17:00:00 12.3 4 Este 25 Nordeste 3.6 -- -- 92
2020-03-23 16:00:00 12.3 5 Nordeste 27 Oeste 3.4 -- -- 85
2020-03-23 15:00:00 13.9 6 Noroeste 13 Noroeste 0 -- -- 82
2020-03-23 14:00:00 14.1 5 Noroeste 11 Oeste 0.4 -- -- 82
2020-03-23 13:00:00 15 2 Oeste 14 Sur 0 -- -- 70
2020-03-23 12:00:00 14.9 10 Sur 17 Sur 0 -- -- 72
2020-03-23 11:00:00 14.9 4 Oeste 12 Oeste 0 -- -- 68
2020-03-23 10:00:00 12.8 5 Norte 8 Norte 0 -- -- 79
2020-03-23 09:00:00 10.9 4 Norte 10 Norte 0 -- -- 86
2020-03-23 08:00:00 10 3 Norte 8 Nordeste 0 -- -- 92
2020-03-23 07:00:00 9.1 3 Nordeste 7 Norte 0 -- -- 92
2020-03-23 06:00:00 9.3 3 Nordeste 7 Norte 0 -- -- 92
2020-03-23 05:00:00 9.8 3 Nordeste 7 Norte 0 -- -- 92
2020-03-23 04:00:00 9.9 3 Nordeste 5 Norte 0 -- -- 92
2020-03-23 03:00:00 10.5 0 Calma 5 Norte 0 -- -- 89
2020-03-23 02:00:00 10.7 2 Nordeste 7 Norte 0 -- -- 89
2020-03-23 01:00:00 10.4 4 Norte 11 Norte 0 -- -- 86
2020-03-23 00:00:00 11.1 3 Nordeste 7 Nordeste 0 -- -- 88
2020-03-22 23:00:00 11.1 3 Nordeste 8 Norte 0 -- -- 88
2020-03-22 22:00:00 11.4 3 Nordeste 19 Norte 0 -- -- 87
2020-03-22 21:00:00 12.8 3 Sudeste 15 Noroeste 0 -- -- 76
2020-03-22 20:00:00 13.4 4 Noroeste 6 Noroeste 0 -- -- 80
2020-03-22 19:00:00 13.9 2 Sur 12 Sur 0 -- -- 76
2020-03-22 18:00:00 14.7 6 Sur 18 Sur 0 -- -- 74
2020-03-22 17:00:00 15.3 8 Sur 19 Sur 0 -- -- 73
2020-03-22 16:00:00 15.8 11 Sur 22 Sur 0 -- -- 72
2020-03-22 15:00:00 15.6 13 Sur 24 Sur 0 -- -- 75
2020-03-22 14:00:00 15.2 12 Sur 24 Sur 0 -- -- 75
2020-03-22 13:00:00 15.1 16 Sur 25 Sur 0 -- -- 76
2020-03-22 12:00:00 14.4 12 Sur 22 Sur 0 -- -- 74
2020-03-22 11:00:00 13.3 6 Sudeste 11 Sudeste 0 -- -- 77
2020-03-22 10:00:00 11.3 0 Calma 7 Nordeste 0 -- -- 93
2020-03-22 09:00:00 10.3 0 Calma 6 Norte 0 -- -- 95
2020-03-22 08:00:00 9.6 3 Norte 5 Norte 0 -- -- 95
2020-03-22 07:00:00 9.5 0 Calma 6 Noroeste 0 -- -- 94
2020-03-22 06:00:00 9.8 0 Calma 6 Este 0.8 -- -- 93
2020-03-22 05:00:00 10.1 2 Este 14 Nordeste 1.4 -- -- 92
2020-03-22 04:00:00 10.2 3 Nordeste 5 Nordeste 5.6 -- -- 94
2020-03-22 03:00:00 10.4 0 Calma 11 Nordeste 1.8 -- -- 93
2020-03-22 02:00:00 10.6 14 Noroeste 24 Noroeste 3.4 -- -- 92
2020-03-22 01:00:00 11 6 Este 15 Este 0.6 -- -- 91
2020-03-22 00:00:00 11.4 3 Norte 16 Este 7.4 -- -- 92
2020-03-21 23:00:00 11.6 5 Este 9 Este 0.2 -- -- 91
2020-03-21 22:00:00 11.4 3 Este 9 Nordeste 0.2 -- -- 93
2020-03-21 21:00:00 11.5 3 Este 10 Nordeste 2.6 -- -- 91
2020-03-21 20:00:00 11.7 4 Nordeste 16 Sudoeste 1.6 -- -- 88
2020-03-21 19:00:00 13 5 Noroeste 20 Sudoeste 1 -- -- 86
2020-03-21 18:00:00 13.1 7 Norte 29 Sudoeste 1 -- -- 84
2020-03-21 17:00:00 15.4 8 Sudoeste 21 Oeste 0.4 -- -- 74
2020-03-21 16:00:00 17.1 9 Sudoeste 21 Sudoeste 0 -- -- 65
2020-03-21 15:00:00 16.9 15 Sudoeste 24 Oeste 0 -- -- 63
2020-03-21 14:00:00 16.7 15 Sudoeste 27 Sudoeste 0 -- -- 63
2020-03-21 13:00:00 16.5 12 Sudoeste 22 Sudoeste 0 -- -- 68
2020-03-21 12:00:00 15.8 14 Sudoeste 22 Sudoeste 0 -- -- 75
2020-03-21 11:00:00 15.3 10 Sudoeste 16 Sur 0 -- -- 78
2020-03-21 10:00:00 13.9 4 Noroeste 10 Noroeste 0 -- -- 83
2020-03-21 09:00:00 12.2 3 Norte 6 Norte 0 -- -- 95
2020-03-21 08:00:00 11 3 Nordeste 6 Norte 0 -- -- 95
2020-03-21 07:00:00 10.7 3 Norte 5 Norte 0.2 -- -- 94
2020-03-21 06:00:00 10.7 3 Oeste 14 Nordeste 2.4 -- -- 92
2020-03-21 05:00:00 11.1 3 Sudeste 39 Sudoeste 9.8 -- -- 89
2020-03-21 04:00:00 14.4 20 Sur 33 Sur 3.2 -- -- 91
2020-03-21 03:00:00 15 9 Sudeste 24 Este 0 -- -- 85
2020-03-21 02:00:00 15.2 9 Sudeste 25 Sudeste 0 -- -- 80
2020-03-21 01:00:00 15.2 12 Sudeste 23 Este 0 -- -- 80
2020-03-21 00:00:00 15.4 11 Sudeste 35 Sudeste 0 -- -- 72
2020-03-20 23:00:00 15.4 17 Sudeste 40 Sudeste 0 -- -- 78
2020-03-20 22:00:00 15.3 15 Sudeste 36 Sudeste 0 -- -- 82
2020-03-20 21:00:00 15.4 13 Sudeste 30 Sudeste 0 -- -- 80
2020-03-20 20:00:00 15.5 14 Sudeste 26 Sudeste 0 -- -- 79
2020-03-20 19:00:00 15.7 12 Sur 23 Sur 0 -- -- 79
2020-03-20 18:00:00 16.6 13 Sudeste 25 Sudeste 0 -- -- 74
2020-03-20 17:00:00 18.1 13 Sudeste 23 Sur 0 -- -- 66
2020-03-20 16:00:00 18.7 3 Sur 17 Sudoeste 0 -- -- 62
2020-03-20 15:00:00 18.6 13 Sudoeste 24 Sudoeste 0 -- -- 64
2020-03-20 14:00:00 19 9 Noroeste 15 Norte 0 -- -- 59
2020-03-20 13:00:00 18 6 Sur 19 Sur 0 -- -- 64
2020-03-20 12:00:00 18.2 4 Noroeste 14 Noroeste 0 -- -- 63
2020-03-20 11:00:00 17.2 6 Sudoeste 13 Noroeste 0 -- -- 69
2020-03-20 10:00:00 15.5 3 Noroeste 10 Noroeste 0 -- -- 76
2020-03-20 09:00:00 14.9 6 Noroeste 12 Noroeste 0 -- -- 78
2020-03-20 08:00:00 14.2 3 Norte 8 Noroeste 0 -- -- 83
2020-03-20 07:00:00 13.8 4 Norte 8 Norte 0 -- -- 83
2020-03-20 06:00:00 12.9 4 Norte 9 Norte 0 -- -- 86
2020-03-20 05:00:00 12.7 4 Norte 9 Norte 0 -- -- 87
2020-03-20 04:00:00 13.4 6 Norte 12 Norte 0 -- -- 85
2020-03-20 03:00:00 13.6 8 Norte 11 Norte 0 -- -- 86
2020-03-20 02:00:00 14 3 Norte 6 Norte 0 -- -- 86
2020-03-20 01:00:00 14.1 2 Nordeste 5 Norte 0 -- -- 86
2020-03-20 00:00:00 14.8 0 Calma 4 Sudeste 0 -- -- 84
2020-03-19 23:00:00 14.4 5 Norte 12 Norte 0 -- -- 84
2020-03-19 22:00:00 15 8 Norte 12 Noroeste 0 -- -- 82
2020-03-19 21:00:00 15.5 3 Noroeste 7 Sur 0 -- -- 79
2020-03-19 20:00:00 16 4 Sur 9 Sur 0 -- -- 77
2020-03-19 19:00:00 16.3 4 Sudeste 10 Sur 0 -- -- 74
2020-03-19 18:00:00 16.9 6 Sur 17 Sur 0 -- -- 76
2020-03-19 17:00:00 17.5 11 Sur 21 Sur 0 -- -- 72
2020-03-19 16:00:00 17.9 14 Sur 21 Sur 0 -- -- 69
2020-03-19 15:00:00 17.3 13 Sur 22 Sudeste 0 -- -- 73
2020-03-19 14:00:00 18.9 11 Sudoeste 16 Sudoeste 0 -- -- 62
2020-03-19 13:00:00 18.9 9 Sudoeste 15 Sur 0 -- -- 66
2020-03-19 12:00:00 17.1 10 Sudoeste 21 Sudoeste 0 -- -- 75
2020-03-19 11:00:00 17.3 10 Sudoeste 17 Sudoeste 0 -- -- 75
2020-03-19 10:00:00 16.8 5 Noroeste 11 Noroeste 0 -- -- 70
2020-03-19 09:00:00 14.3 5 Noroeste 11 Norte 0 -- -- 83
2020-03-19 08:00:00 12.6 5 Norte 8 Norte 0 -- -- 88
2020-03-19 07:00:00 12.6 2 Norte 8 Norte 0 -- -- 86
2020-03-19 06:00:00 13.4 0 Calma 12 Noroeste 0 -- -- 85
2020-03-19 05:00:00 13.4 8 Noroeste 10 Noroeste 0 -- -- 85
2020-03-19 04:00:00 13.8 5 Norte 11 Norte 0 -- -- 84
2020-03-19 03:00:00 14.1 4 Norte 10 Norte 0 -- -- 84
2020-03-19 02:00:00 13 3 Nordeste 8 Norte 0 -- -- 88
2020-03-19 01:00:00 13.5 3 Norte 8 Norte 0 -- -- 85
2020-03-19 00:00:00 13.2 3 Norte 8 Norte 0 -- -- 86
2020-03-18 23:00:00 13.4 4 Nordeste 6 Norte 0 -- -- 86
2020-03-18 22:00:00 13.9 2 Nordeste 5 Norte 0 -- -- 82
2020-03-18 21:00:00 15.1 0 Calma 18 Este 0 -- -- 77
2020-03-18 20:00:00 16.3 8 Sudeste 26 Sudeste 0 -- -- 73
2020-03-18 19:00:00 17 14 Sudeste 33 Sudeste 0 -- -- 68
2020-03-18 18:00:00 18.5 18 Sudeste 41 Sudeste 0 -- -- 62
2020-03-18 17:00:00 19.1 17 Sudeste 48 Sudeste 0 -- -- 59
2020-03-18 16:00:00 19.7 22 Sudeste 42 Sudeste 0 -- -- 58
2020-03-18 15:00:00 19.9 20 Sudeste 43 Sudeste 0 -- -- 58
2020-03-18 14:00:00 19.9 17 Sudeste 40 Sudeste 0 -- -- 60
2020-03-18 13:00:00 19.7 19 Sudeste 46 Sudeste 0 -- -- 59
2020-03-18 12:00:00 19.3 21 Sudeste 42 Sudeste 0 -- -- 61
2020-03-18 11:00:00 18.8 19 Sudeste 41 Sudeste 0 -- -- 65
2020-03-18 10:00:00 18.3 13 Sudeste 23 Sudeste 0 -- -- 65
2020-03-18 09:00:00 16 4 Norte 8 Norte 0 -- -- 78
2020-03-18 08:00:00 13.5 4 Norte 13 Sur 0 -- -- 83
2020-03-18 07:00:00 12 4 Norte 8 Norte 0 -- -- 89
2020-03-18 06:00:00 11.6 3 Norte 10 Norte 0 -- -- 90
2020-03-18 05:00:00 12.2 3 Norte 6 Norte 0 -- -- 89
2020-03-18 04:00:00 12.4 4 Nordeste 10 Nordeste 0 -- -- 87
2020-03-18 03:00:00 12.6 3 Norte 11 Norte 0 -- -- 85
2020-03-18 02:00:00 13.1 6 Norte 16 Norte 0 -- -- 84
2020-03-18 01:00:00 12.4 8 Norte 16 Norte 0 -- -- 88
2020-03-18 00:00:00 12.1 3 Norte 10 Noroeste 0 -- -- 87
2020-03-17 23:00:00 12.3 3 Norte 9 Norte 0 -- -- 86
2020-03-17 22:00:00 12.9 5 Norte 10 Norte 0 -- -- 88
2020-03-17 21:00:00 13.1 5 Norte 10 Norte 0 -- -- 89
2020-03-17 20:00:00 13.9 4 Norte 6 Norte 0 -- -- 85
2020-03-17 19:00:00 15.1 4 Sudeste 21 Sudeste 0 -- -- 81
2020-03-17 18:00:00 15.4 10 Sudeste 25 Sudeste 0 -- -- 80
2020-03-17 17:00:00 15.5 10 Sudeste 37 Este 0 -- -- 80
2020-03-17 16:00:00 17 11 Sudeste 36 Sudeste 0 -- -- 66
2020-03-17 15:00:00 16.9 15 Sudeste 40 Sudeste 0 -- -- 56
2020-03-17 14:00:00 17.2 15 Sudeste 43 Sudeste 0 -- -- 58
2020-03-17 13:00:00 17.9 19 Sudeste 39 Sur 0 -- -- 52
2020-03-17 12:00:00 17 20 Sudeste 44 Este 0 -- -- 56
2020-03-17 11:00:00 16.2 23 Sudeste 46 Sudeste 0 -- -- 63
2020-03-17 10:00:00 12.7 13 Sudeste 26 Sudeste 1.4 -- -- 72
2020-03-17 09:00:00 11 5 Sudeste 24 Sudeste 2 -- -- 80
2020-03-17 08:00:00 12.1 10 Sudeste 28 Este 0 -- -- 72
2020-03-17 07:00:00 9.5 0 Calma 7 Sudeste 0 -- -- 70
2020-03-17 06:00:00 10.5 5 Este 9 Este 0 -- -- 63
2020-03-17 05:00:00 10.1 2 Sudeste 4 Este 0 -- -- 66
2020-03-17 04:00:00 10.2 2 Norte 6 Sudoeste 0 -- -- 64
2020-03-17 03:00:00 10.1 4 Este 6 Este 0 -- -- 59
2020-03-17 02:00:00 10.7 0 Calma 5 Norte 0 -- -- 58
2020-03-17 01:00:00 11.5 3 Nordeste 7 Nordeste 0 -- -- 55
2020-03-17 00:00:00 12.2 2 Noroeste 9 Noroeste 0 -- -- 53
2020-03-16 23:00:00 12 2 Norte 9 Noroeste 0 -- -- 53
2020-03-16 22:00:00 12.9 6 Noroeste 9 Oeste 0 -- -- 49
2020-03-16 21:00:00 13.5 5 Oeste 21 Norte 0 -- -- 45
2020-03-16 20:00:00 13.6 14 Norte 30 Noroeste 0 -- -- 42
2020-03-16 19:00:00 15.3 20 Noroeste 33 Norte 0 -- -- 37
2020-03-16 18:00:00 16.6 27 Noroeste 42 Norte 0 -- -- 34
2020-03-16 17:00:00 17.9 22 Noroeste 40 Norte 0 -- -- 32
2020-03-16 16:00:00 18.3 20 Noroeste 43 Noroeste 0 -- -- 31
2020-03-16 15:00:00 18.6 30 Norte 45 Norte 0 -- -- 29
2020-03-16 14:00:00 19.2 28 Noroeste 45 Noroeste 0 -- -- 25
2020-03-16 13:00:00 18.5 31 Noroeste 46 Noroeste 0 -- -- 22
2020-03-16 12:00:00 17.8 21 Noroeste 36 Oeste 0 -- -- 26
2020-03-16 11:00:00 15.7 14 Noroeste 32 Oeste 0 -- -- 35
2020-03-16 10:00:00 14.3 20 Noroeste 30 Noroeste 0 -- -- 41
2020-03-16 09:00:00 13.9 20 Noroeste 30 Noroeste 0 -- -- 55
2020-03-16 08:00:00 14.1 19 Noroeste 27 Noroeste 0.2 -- -- 66
2020-03-16 07:00:00 13.7 8 Noroeste 13 Noroeste 0 -- -- 88
2020-03-16 06:00:00 13.5 4 Noroeste 7 Norte 0 -- -- 89
2020-03-16 05:00:00 13.6 4 Nordeste 7 Nordeste 0 -- -- 89
2020-03-16 04:00:00 13.1 2 Norte 8 Norte 0 -- -- 91
2020-03-16 03:00:00 12.7 2 Norte 7 Norte 0 -- -- 93
2020-03-16 02:00:00 12.2 2 Norte 8 Norte 0 -- -- 93
2020-03-16 01:00:00 12 4 Norte 8 Norte 0 -- -- 93
2020-03-16 00:00:00 12.7 4 Nordeste 6 Norte 0 -- -- 90
2020-03-15 23:00:00 14.3 4 Sur 7 Norte 0 -- -- 85
2020-03-15 22:00:00 15.3 6 Norte 10 Noroeste 0 -- -- 87
2020-03-15 21:00:00 15.2 3 Oeste 8 Sudoeste 0 -- -- 86
2020-03-15 20:00:00 15.3 2 Sudoeste 6 Sudoeste 0 -- -- 85
2020-03-15 19:00:00 15.6 4 Sudoeste 10 Sudoeste 0 -- -- 83
2020-03-15 18:00:00 16.4 7 Sur 13 Sur 0 -- -- 80
2020-03-15 17:00:00 16.3 8 Sur 17 Sur 0 -- -- 81
2020-03-15 16:00:00 15.8 7 Sudeste 13 Sudeste 0 -- -- 84
2020-03-15 15:00:00 15.9 4 Sur 11 Sudeste 0 -- -- 87
2020-03-15 14:00:00 16.1 8 Sudeste 13 Sudoeste 0 -- -- 84
2020-03-15 13:00:00 16 5 Sur 13 Sur 0.4 -- -- 85
2020-03-15 12:00:00 16 8 Sur 14 Sur 0 -- -- 82
2020-03-15 11:00:00 16.7 7 Sudeste 16 Sur 0 -- -- 76
2020-03-15 10:00:00 16 5 Sudeste 13 Sudeste 0 -- -- 81
2020-03-15 09:00:00 15.3 4 Sudeste 10 Sur 0 -- -- 87
2020-03-15 08:00:00 14.2 2 Norte 4 Norte 0 -- -- 91
2020-03-15 07:00:00 14.1 2 Nordeste 4 Norte 0 -- -- 89
2020-03-15 06:00:00 14.7 0 Calma 6 Sur 0 -- -- 87
2020-03-15 05:00:00 14.8 0 Calma 6 Norte 0 -- -- 89
2020-03-15 04:00:00 14.8 4 Norte 6 Noroeste 0 -- -- 88
2020-03-15 03:00:00 14.8 0 Calma 5 Norte 0 -- -- 86
2020-03-15 02:00:00 14.3 3 Norte 5 Norte 0 -- -- 88
2020-03-15 01:00:00 13.2 3 Norte 4 Norte 0 -- -- 92
2020-03-15 00:00:00 12.7 2 Norte 5 Nordeste 0 -- -- 90
2020-03-14 23:00:00 13 4 Nordeste 6 Nordeste 0 -- -- 89
2020-03-14 22:00:00 13.1 2 Nordeste 4 Este 0 -- -- 89
2020-03-14 21:00:00 13.8 2 Nordeste 4 Este 0 -- -- 85
2020-03-14 20:00:00 15.4 0 Calma 6 Sur 0 -- -- 79
2020-03-14 19:00:00 17.1 5 Sur 11 Sur 0 -- -- 76
2020-03-14 18:00:00 18.2 8 Sur 15 Sur 0 -- -- 72
2020-03-14 17:00:00 19 8 Sudoeste 16 Sudoeste 0 -- -- 70
2020-03-14 16:00:00 19.4 11 Sudoeste 19 Sur 0 -- -- 69
2020-03-14 15:00:00 19.3 12 Sur 21 Sur 0 -- -- 67
2020-03-14 14:00:00 19.3 12 Sur 21 Sur 0 -- -- 70
2020-03-14 13:00:00 19.5 13 Sur 20 Sur 0 -- -- 65
2020-03-14 12:00:00 19.1 11 Sur 19 Sur 0 -- -- 67
2020-03-14 11:00:00 18.7 9 Sur 15 Sur 0 -- -- 67
2020-03-14 10:00:00 16.9 3 Norte 7 Norte 0 -- -- 72
2020-03-14 09:00:00 14.9 5 Norte 9 Norte 0 -- -- 78
2020-03-14 08:00:00 13.9 5 Norte 9 Norte 0 -- -- 80
2020-03-14 07:00:00 14.4 4 Norte 9 Norte 0 -- -- 81
2020-03-14 06:00:00 14.8 4 Norte 7 Nordeste 0 -- -- 80
2020-03-14 05:00:00 14.7 3 Norte 7 Norte 0 -- -- 84
2020-03-14 04:00:00 13.6 4 Norte 6 Norte 0 -- -- 90
2020-03-14 03:00:00 13.1 2 Nordeste 5 Este 0 -- -- 92
2020-03-14 02:00:00 12.6 2 Norte 5 Norte 0 -- -- 89
2020-03-14 01:00:00 12.9 2 Norte 5 Norte 0 -- -- 87
2020-03-14 00:00:00 13.3 2 Nordeste 5 Este 0 -- -- 86
2020-03-13 23:00:00 13.9 2 Este 4 Este 0 -- -- 83
2020-03-13 22:00:00 15.1 4 Sudeste 8 Sudeste 0 -- -- 81
2020-03-13 21:00:00 16 0 Calma 10 Sudeste 0 -- -- 69
2020-03-13 20:00:00 17 5 Sudeste 19 Sudeste 0 -- -- 72
2020-03-13 19:00:00 18.4 9 Sudeste 27 Sudeste 0 -- -- 60
2020-03-13 18:00:00 19.8 12 Sudeste 30 Sudeste 0 -- -- 56
2020-03-13 17:00:00 20 14 Sudeste 28 Sur 0 -- -- 59
2020-03-13 16:00:00 19.5 15 Sur 26 Sur 0 -- -- 72
2020-03-13 15:00:00 20 13 Sur 27 Sur 0 -- -- 68
2020-03-13 14:00:00 19.9 15 Sur 30 Sur 0 -- -- 66
2020-03-13 13:00:00 20 17 Sudeste 26 Sur 0 -- -- 58
2020-03-13 12:00:00 19.3 10 Sur 16 Sudeste 0 -- -- 65
2020-03-13 11:00:00 21.4 6 Sudoeste 10 Sur 0 -- -- 54
2020-03-13 10:00:00 17.8 2 Norte 5 Norte 0 -- -- 56
2020-03-13 09:00:00 14.4 0 Calma 4 Norte 0 -- -- 74
2020-03-13 08:00:00 12.1 3 Norte 5 Nordeste 0 -- -- 76
2020-03-13 07:00:00 11.9 0 Calma 4 Norte 0 -- -- 73
2020-03-13 06:00:00 12.5 0 Calma 8 Norte 0 -- -- 70
2020-03-13 05:00:00 12.5 4 Nordeste 5 Nordeste 0 -- -- 70
2020-03-13 04:00:00 13 0 Calma 12 Nordeste 0 -- -- 68
2020-03-13 03:00:00 13.4 5 Norte 8 Norte 0 -- -- 66
2020-03-13 02:00:00 14.1 5 Norte 10 Norte 0 -- -- 65
2020-03-13 01:00:00 14.5 5 Norte 10 Norte 0 -- -- 63
2020-03-13 00:00:00 15.7 6 Norte 12 Norte 0 -- -- 59
2020-03-12 23:00:00 14.7 5 Norte 11 Nordeste 0 -- -- 64
2020-03-12 22:00:00 15.4 3 Nordeste 9 Nordeste 0 -- -- 60
2020-03-12 21:00:00 15.4 4 Norte 8 Norte 0 -- -- 59
2020-03-12 20:00:00 17.5 2 Nordeste 5 Oeste 0 -- -- 55
2020-03-12 19:00:00 21.2 3 Oeste 6 Sudoeste 0 -- -- 45
2020-03-12 18:00:00 21.9 4 Sudoeste 14 Sudoeste 0 -- -- 44
2020-03-12 17:00:00 22 8 Sudoeste 17 Sudoeste 0 -- -- 47
2020-03-12 16:00:00 22.6 10 Sudoeste 19 Sudoeste 0 -- -- 44
2020-03-12 15:00:00 22.9 14 Sudoeste 19 Sudoeste 0 -- -- 41
2020-03-12 14:00:00 24.1 9 Sudoeste 14 Sudoeste 0 -- -- 38
2020-03-12 13:00:00 24.7 6 Sudoeste 12 Sudoeste 0 -- -- 40
2020-03-12 12:00:00 24 7 Sur 12 Sur 0 -- -- 38
2020-03-12 11:00:00 24.4 4 Sudoeste 14 Noroeste 0 -- -- 38
2020-03-12 10:00:00 22 4 Sudoeste 8 Sur 0 -- -- 46
2020-03-12 09:00:00 17.2 0 Calma 6 Norte 0 -- -- 62
2020-03-12 08:00:00 15.1 5 Norte 11 Norte 0 -- -- 58
2020-03-12 07:00:00 15.5 7 Norte 13 Norte 0 -- -- 54
2020-03-12 06:00:00 14 2 Norte 10 Norte 0 -- -- 60
2020-03-12 05:00:00 14.7 7 Norte 13 Norte 0 -- -- 55
2020-03-12 04:00:00 15.1 6 Norte 13 Norte 0 -- -- 55
2020-03-12 03:00:00 13.5 7 Norte 13 Norte 0 -- -- 61
2020-03-12 02:00:00 12.9 5 Norte 9 Norte 0 -- -- 70
2020-03-12 01:00:00 13.1 5 Norte 8 Norte 0 -- -- 73
2020-03-12 00:00:00 13.8 4 Nordeste 7 Nordeste 0 -- -- 74
2020-03-11 23:00:00 14.3 2 Nordeste 8 Norte 0 -- -- 71
2020-03-11 22:00:00 14.8 0 Calma 8 Norte 0 -- -- 68
2020-03-11 21:00:00 16 2 Nordeste 6 Sur 0 -- -- 66
2020-03-11 20:00:00 17.8 4 Nordeste 8 Nordeste 0 -- -- 59
2020-03-11 19:00:00 21.2 3 Noroeste 6 Sudoeste 0 -- -- 49
2020-03-11 18:00:00 23.4 4 Este 14 Sudoeste 0 -- -- 38
2020-03-11 17:00:00 23.1 8 Sur 13 Sudoeste 0 -- -- 38
2020-03-11 16:00:00 23.8 9 Sudoeste 21 Sur 0 -- -- 39
2020-03-11 15:00:00 23 13 Sur 19 Sur 0 -- -- 41
2020-03-11 14:00:00 21.9 13 Sur 18 Sudeste 0 -- -- 40
2020-03-11 13:00:00 21.8 8 Sur 13 Sudoeste 0 -- -- 43
2020-03-11 12:00:00 20.4 9 Sur 18 Sudeste 0 -- -- 42
2020-03-11 11:00:00 19.2 10 Sudeste 17 Sudeste 0 -- -- 50
2020-03-11 10:00:00 18.6 7 Sur 12 Sur 0 -- -- 51
2020-03-11 09:00:00 14.7 0 Calma 4 Norte 0 -- -- 64
2020-03-11 08:00:00 11 0 Calma 5 Norte 0 -- -- 73
2020-03-11 07:00:00 11 0 Calma 8 Norte 0 -- -- 68
2020-03-11 06:00:00 11.2 4 Nordeste 7 Norte 0 -- -- 66
2020-03-11 05:00:00 11.1 3 Norte 6 Norte 0 -- -- 67
2020-03-11 04:00:00 11.9 4 Norte 9 Norte 0 -- -- 64
2020-03-11 03:00:00 12.2 6 Norte 10 Norte 0 -- -- 61
2020-03-11 02:00:00 12.4 5 Norte 10 Norte 0 -- -- 61
2020-03-11 01:00:00 12.3 3 Norte 10 Norte 0 -- -- 63
2020-03-11 00:00:00 12.7 7 Norte 10 Norte 0 -- -- 61
2020-03-10 23:00:00 12.7 5 Norte 8 Norte 0 -- -- 59
2020-03-10 22:00:00 13.1 3 Norte 7 Norte 0 -- -- 59
2020-03-10 21:00:00 14 4 Norte 5 Nordeste 0 -- -- 54
2020-03-10 20:00:00 16.1 3 Nordeste 8 Sudeste 0 -- -- 50
2020-03-10 19:00:00 18.3 5 Sudeste 17 Sur 0 -- -- 48
2020-03-10 18:00:00 19.5 10 Sur 23 Sur 0 -- -- 43
2020-03-10 17:00:00 20 15 Sudeste 31 Sudeste 0 -- -- 39
2020-03-10 16:00:00 20.3 17 Sudeste 31 Sudeste 0 -- -- 42
2020-03-10 15:00:00 20.3 17 Sudeste 30 Sudeste 0 -- -- 46
2020-03-10 14:00:00 21.8 14 Sudeste 32 Sur 0 -- -- 41
2020-03-10 13:00:00 23.1 15 Sudeste 28 Sur 0 -- -- 33
2020-03-10 12:00:00 22.9 13 Sudeste 30 Sudeste 0 -- -- 33
2020-03-10 11:00:00 22.3 12 Sudeste 26 Sudeste 0 -- -- 36
2020-03-10 10:00:00 19.6 6 Sur 11 Sur 0 -- -- 56
2020-03-10 09:00:00 15.9 2 Norte 8 Norte 0 -- -- 65
2020-03-10 08:00:00 12.7 5 Norte 8 Norte 0 -- -- 68
2020-03-10 07:00:00 11.8 3 Norte 13 Norte 0 -- -- 73
2020-03-10 06:00:00 11.8 5 Norte 11 Nordeste 0 -- -- 80
2020-03-10 05:00:00 12.2 2 Nordeste 7 Nordeste 0 -- -- 83
2020-03-10 04:00:00 13 4 Nordeste 7 Norte 0 -- -- 79
2020-03-10 03:00:00 15.6 2 Nordeste 18 Sudeste 0 -- -- 75
2020-03-10 02:00:00 17.5 8 Sur 15 Sur 0 -- -- 55
2020-03-10 01:00:00 18.6 6 Noroeste 16 Noroeste 0 -- -- 40
2020-03-10 00:00:00 19.3 12 Norte 25 Norte 0 -- -- 36
2020-03-09 23:00:00 16.5 4 Norte 14 Nordeste 0 -- -- 45
2020-03-09 22:00:00 15 3 Norte 17 Este 0 -- -- 66
2020-03-09 21:00:00 14.7 2 Nordeste 9 Este 0 -- -- 68
2020-03-09 20:00:00 16.2 4 Sudeste 9 Sur 0 -- -- 75
2020-03-09 19:00:00 20 3 Sudoeste 10 Sudoeste 0 -- -- 60
2020-03-09 18:00:00 22.1 4 Sudoeste 14 Sur 0 -- -- 42
2020-03-09 17:00:00 23.2 11 Sur 15 Sur 0 -- -- 31
2020-03-09 16:00:00 23.1 9 Sudeste 16 Sur 0 -- -- 30
2020-03-09 15:00:00 22.1 11 Sur 22 Sur 0 -- -- 37
2020-03-09 14:00:00 23.2 12 Sur 24 Sudeste 0 -- -- 36
2020-03-09 13:00:00 21.7 14 Sudeste 33 Sudeste 0 -- -- 41
2020-03-09 12:00:00 21.3 14 Sudeste 27 Sudeste 0 -- -- 55
2020-03-09 11:00:00 23.7 9 Sur 29 Noroeste 0 -- -- 35
2020-03-09 10:00:00 22.5 16 Noroeste 27 Noroeste 0 -- -- 29
2020-03-09 09:00:00 17.8 3 Norte 12 Norte 0 -- -- 45
2020-03-09 08:00:00 15.4 6 Norte 13 Norte 0 -- -- 53
2020-03-09 07:00:00 14.8 7 Norte 16 Norte 0 -- -- 44
2020-03-09 06:00:00 14.1 6 Norte 14 Norte 0 -- -- 43
2020-03-09 05:00:00 14.7 7 Nordeste 14 Nordeste 0 -- -- 41
2020-03-09 04:00:00 13.3 6 Norte 12 Norte 0 -- -- 47
2020-03-09 03:00:00 15.4 4 Norte 18 Norte 0 -- -- 43
2020-03-09 02:00:00 14.9 5 Norte 15 Norte 0 -- -- 46
2020-03-09 01:00:00 12.4 4 Norte 8 Norte 0 -- -- 66
2020-03-09 00:00:00 13.4 4 Sudeste 13 Este 0 -- -- 81
2020-03-08 23:00:00 12.7 3 Norte 9 Norte 0 -- -- 84
2020-03-08 22:00:00 13 2 Sudeste 5 Nordeste 0 -- -- 87
2020-03-08 21:00:00 13 0 Calma 4 Norte 0 -- -- 87
2020-03-08 20:00:00 14.1 0 Calma 4 Sudoeste 0 -- -- 82
2020-03-08 19:00:00 15.9 3 Sudoeste 13 Oeste 0 -- -- 76
2020-03-08 18:00:00 17.5 6 Oeste 14 Sudoeste 0 -- -- 68
2020-03-08 17:00:00 18.6 8 Sudoeste 14 Sudoeste 0 -- -- 62
2020-03-08 16:00:00 19.1 8 Sudoeste 15 Sudoeste 0 -- -- 59
2020-03-08 15:00:00 19.2 8 Sudoeste 14 Sur 0 -- -- 52
2020-03-08 14:00:00 18.9 6 Sudoeste 15 Sudoeste 0 -- -- 48
2020-03-08 13:00:00 18.7 7 Sudoeste 13 Sudoeste 0 -- -- 56
2020-03-08 12:00:00 18.9 8 Sudoeste 14 Sudoeste 0 -- -- 60
2020-03-08 11:00:00 18.7 5 Sudoeste 11 Oeste 0 -- -- 47
2020-03-08 10:00:00 16.6 3 Noroeste 12 Sudoeste 0 -- -- 60
2020-03-08 09:00:00 11.9 7 Norte 12 Norte 0 -- -- 70
2020-03-08 08:00:00 9.5 8 Norte 12 Nordeste 0 -- -- 73
2020-03-08 07:00:00 9.5 8 Norte 13 Norte 0 -- -- 77
2020-03-08 06:00:00 10 8 Norte 12 Norte 0 -- -- 81
2020-03-08 05:00:00 10.2 7 Norte 10 Norte 0 -- -- 85
2020-03-08 04:00:00 11 4 Nordeste 9 Norte 0 -- -- 86
2020-03-08 03:00:00 10.9 5 Nordeste 9 Norte 0 -- -- 86
2020-03-08 02:00:00 10.6 5 Norte 9 Norte 0 -- -- 81
2020-03-08 01:00:00 11.2 5 Nordeste 8 Este 0 -- -- 81
2020-03-08 00:00:00 11.8 4 Este 9 Sudeste 0 -- -- 82
2020-03-07 23:00:00 12 5 Este 10 Este 0 -- -- 77
2020-03-07 22:00:00 12.1 0 Calma 11 Norte 0 -- -- 74
2020-03-07 21:00:00 13 5 Norte 12 Norte 0 -- -- 71
2020-03-07 20:00:00 14.3 2 Norte 5 Nordeste 0 -- -- 68
2020-03-07 19:00:00 16.7 0 Calma 12 Sudoeste 0 -- -- 61
2020-03-07 18:00:00 18.5 6 Sur 13 Sur 0 -- -- 55
2020-03-07 17:00:00 18.5 6 Sur 15 Sur 0 -- -- 52
2020-03-07 16:00:00 19.1 9 Sur 16 Sudoeste 0 -- -- 51
2020-03-07 15:00:00 19.4 11 Sur 23 Sudeste 0 -- -- 50
2020-03-07 14:00:00 18.4 12 Sudeste 23 Sudeste 0 -- -- 48
2020-03-07 13:00:00 19.3 13 Sur 22 Sudeste 0 -- -- 43
2020-03-07 12:00:00 18.4 8 Sudeste 18 Sudoeste 0 -- -- 45
2020-03-07 11:00:00 19 5 Sudoeste 19 Noroeste 0 -- -- 36
2020-03-07 10:00:00 16.6 11 Noroeste 19 Noroeste 0 -- -- 37
2020-03-07 09:00:00 13.9 4 Norte 13 Norte 0 -- -- 46
2020-03-07 08:00:00 10.8 6 Norte 12 Norte 0 -- -- 53
2020-03-07 07:00:00 10.5 3 Nordeste 12 Norte 0 -- -- 54
2020-03-07 06:00:00 11.6 4 Norte 13 Norte 0 -- -- 51
2020-03-07 05:00:00 12.3 6 Norte 23 Noroeste 0 -- -- 49
2020-03-07 04:00:00 12.8 13 Norte 27 Noroeste 0 -- -- 49
2020-03-07 03:00:00 13.8 6 Norte 23 Norte 0 -- -- 45
2020-03-07 02:00:00 12.1 4 Noroeste 16 Norte 0 -- -- 50
2020-03-07 01:00:00 13.2 6 Noroeste 14 Noroeste 0 -- -- 47
2020-03-07 00:00:00 15.2 6 Norte 35 Norte 0 -- -- 40
2020-03-06 23:00:00 14.5 6 Norte 15 Norte 0 -- -- 43
2020-03-06 22:00:00 14.5 5 Norte 11 Nordeste 0 -- -- 46
2020-03-06 21:00:00 16.6 5 Norte 49 Noroeste 0 -- -- 39
2020-03-06 20:00:00 17.7 32 Noroeste 52 Noroeste 0 -- -- 38
2020-03-06 19:00:00 18.6 29 Noroeste 59 Noroeste 0 -- -- 37
2020-03-06 18:00:00 19.8 33 Noroeste 71 Norte 0 -- -- 37
2020-03-06 17:00:00 20.4 42 Noroeste 67 Norte 0 -- -- 35
2020-03-06 16:00:00 20.9 39 Noroeste 60 Noroeste 0 -- -- 36
2020-03-06 15:00:00 20.7 35 Noroeste 53 Noroeste 0 -- -- 35
2020-03-06 14:00:00 20.2 29 Noroeste 50 Oeste 0 -- -- 37
2020-03-06 13:00:00 19 26 Noroeste 49 Noroeste 0 -- -- 41
2020-03-06 12:00:00 17.7 23 Noroeste 59 Noroeste 0 -- -- 47
2020-03-06 11:00:00 17.2 33 Noroeste 67 Noroeste 0 -- -- 47
2020-03-06 10:00:00 16.4 28 Noroeste 50 Oeste 0 -- -- 46
2020-03-06 09:00:00 13.8 6 Norte 29 Oeste 0 -- -- 51
2020-03-06 08:00:00 13.1 19 Oeste 38 Oeste 0 -- -- 52
2020-03-06 07:00:00 12.9 17 Oeste 40 Oeste 0 -- -- 51
2020-03-06 06:00:00 13.5 21 Noroeste 42 Noroeste 0 -- -- 50
2020-03-06 05:00:00 13.7 31 Noroeste 63 Noroeste 0 -- -- 51
2020-03-06 04:00:00 14.6 38 Noroeste 66 Norte 0 -- -- 46
2020-03-06 03:00:00 15.5 41 Noroeste 64 Noroeste 0 -- -- 44
2020-03-06 02:00:00 16 33 Noroeste 56 Noroeste 0 -- -- 46
2020-03-06 01:00:00 16.6 35 Noroeste 56 Noroeste 0 -- -- 44
2020-03-06 00:00:00 16.6 21 Noroeste 42 Noroeste 0 -- -- 45
2020-03-05 23:00:00 17.2 23 Noroeste 45 Noroeste 0 -- -- 47
2020-03-05 22:00:00 17.4 25 Noroeste 40 Norte 0 -- -- 48
2020-03-05 21:00:00 17.5 23 Noroeste 37 Noroeste 0 -- -- 52
2020-03-05 20:00:00 18 23 Noroeste 45 Noroeste 0 -- -- 49
2020-03-05 19:00:00 18.9 21 Noroeste 45 Noroeste 0 -- -- 50
2020-03-05 18:00:00 19 28 Noroeste 48 Noroeste 0 -- -- 56
2020-03-05 17:00:00 19.8 29 Noroeste 56 Noroeste 0 -- -- 56
2020-03-05 16:00:00 21.5 40 Noroeste 64 Noroeste 0 -- -- 51
2020-03-05 15:00:00 22.6 41 Noroeste 59 Noroeste 0 -- -- 49
2020-03-05 14:00:00 22.6 41 Noroeste 67 Noroeste 0 -- -- 46
2020-03-05 13:00:00 22.4 27 Noroeste 54 Noroeste 0 -- -- 43
2020-03-05 12:00:00 23.3 26 Noroeste 46 Noroeste 0 -- -- 39
2020-03-05 11:00:00 22.4 24 Noroeste 42 Noroeste 0 -- -- 40
2020-03-05 10:00:00 19.7 8 Noroeste 14 Oeste 0 -- -- 48
2020-03-05 09:00:00 13.9 0 Calma 10 Nordeste 0 -- -- 61
2020-03-05 08:00:00 11.1 5 Norte 9 Norte 0 -- -- 67
2020-03-05 07:00:00 12 5 Norte 12 Norte 0 -- -- 62
2020-03-05 06:00:00 11.2 4 Norte 9 Norte 0 -- -- 70
2020-03-05 05:00:00 11.4 3 Norte 8 Norte 0 -- -- 70
2020-03-05 04:00:00 12.1 4 Norte 10 Norte 0 -- -- 68
2020-03-05 03:00:00 12.2 4 Norte 12 Noroeste 0 -- -- 66
2020-03-05 02:00:00 12.8 3 Nordeste 9 Norte 0 -- -- 66
2020-03-05 01:00:00 13.9 2 Nordeste 10 Norte 0 -- -- 61
2020-03-05 00:00:00 15.7 5 Norte 20 Noroeste 0 -- -- 56
2020-03-04 23:00:00 15.3 9 Norte 18 Norte 0 -- -- 61
2020-03-04 22:00:00 15.7 4 Nordeste 16 Sudoeste 0 -- -- 61
2020-03-04 21:00:00 19.7 4 Oeste 28 Noroeste 0 -- -- 48
2020-03-04 20:00:00 20.6 14 Noroeste 31 Oeste 0 -- -- 45
2020-03-04 19:00:00 22.9 13 Sudoeste 35 Oeste 0 -- -- 39
2020-03-04 18:00:00 25.1 14 Oeste 34 Oeste 0 -- -- 34
2020-03-04 17:00:00 26.4 17 Oeste 41 Noroeste 0 -- -- 32
2020-03-04 16:00:00 26.7 25 Noroeste 44 Noroeste 0 -- -- 31
2020-03-04 15:00:00 27 19 Noroeste 41 Oeste 0 -- -- 31
2020-03-04 14:00:00 27 17 Noroeste 30 Oeste 0 -- -- 32
2020-03-04 13:00:00 25.4 12 Sur 22 Sudoeste 0 -- -- 39
2020-03-04 12:00:00 23.5 11 Sudeste 22 Este 0 -- -- 43
2020-03-04 11:00:00 22.8 8 Sur 15 Sur 0 -- -- 49
2020-03-04 10:00:00 20.7 5 Sur 11 Sur 0 -- -- 52
2020-03-04 09:00:00 15.1 3 Norte 8 Norte 0 -- -- 75
2020-03-04 08:00:00 13.6 4 Norte 10 Nordeste 0 -- -- 74
2020-03-04 07:00:00 14.4 5 Norte 12 Norte 0 -- -- 72
2020-03-04 06:00:00 14.5 5 Norte 12 Nordeste 0 -- -- 73
2020-03-04 05:00:00 14.4 5 Norte 19 Norte 0 -- -- 72
2020-03-04 04:00:00 15 5 Norte 15 Norte 0 -- -- 70
2020-03-04 03:00:00 15.8 6 Norte 39 Noroeste 0 -- -- 68
2020-03-04 02:00:00 18 24 Noroeste 48 Noroeste 0 -- -- 62
2020-03-04 01:00:00 18.2 26 Noroeste 42 Noroeste 0 -- -- 61
2020-03-04 00:00:00 17.7 17 Noroeste 34 Oeste 0 -- -- 63